sensor_id;sensor_type;location;lat;lon;timestamp;pressure;altitude;pressure_sealevel;temperature;humidity
74936;BME280;63501;55.570;37.488;2022-12-10T00:02:11;98940.69;;;-4.74;90.98
74936;BME280;63501;55.570;37.488;2022-12-10T00:04:37;98936.19;;;-4.79;90.46
74936;BME280;63501;55.570;37.488;2022-12-10T00:07:02;98950.06;;;-4.71;90.81
74936;BME280;63501;55.570;37.488;2022-12-10T00:09:28;98950.25;;;-4.68;90.66
74936;BME280;63501;55.570;37.488;2022-12-10T00:11:53;98938.75;;;-4.60;90.54
74936;BME280;63501;55.570;37.488;2022-12-10T00:14:19;98953.22;;;-4.56;89.91
74936;BME280;63501;55.570;37.488;2022-12-10T00:16:45;98947.22;;;-4.53;89.71
74936;BME280;63501;55.570;37.488;2022-12-10T00:19:10;98941.72;;;-4.47;89.77
74936;BME280;63501;55.570;37.488;2022-12-10T00:21:36;98941.28;;;-4.41;89.69
74936;BME280;63501;55.570;37.488;2022-12-10T00:24:02;98926.59;;;-4.35;89.95
74936;BME280;63501;55.570;37.488;2022-12-10T00:26:37;98923.44;;;-4.28;89.50
74936;BME280;63501;55.570;37.488;2022-12-10T00:29:05;98929.53;;;-4.22;89.43
74936;BME280;63501;55.570;37.488;2022-12-10T00:31:34;98923.22;;;-4.18;88.69
74936;BME280;63501;55.570;37.488;2022-12-10T00:34:02;98917.38;;;-4.11;89.29
74936;BME280;63501;55.570;37.488;2022-12-10T00:36:43;98917.56;;;-4.08;89.23
74936;BME280;63501;55.570;37.488;2022-12-10T00:39:11;98901.53;;;-4.04;89.30
74936;BME280;63501;55.570;37.488;2022-12-10T00:41:37;98904.75;;;-4.02;89.07
74936;BME280;63501;55.570;37.488;2022-12-10T00:44:03;98907.13;;;-4.01;89.27
74936;BME280;63501;55.570;37.488;2022-12-10T00:46:29;98908.38;;;-4.07;88.33
74936;BME280;63501;55.570;37.488;2022-12-10T00:48:54;98901.38;;;-4.08;89.21
74936;BME280;63501;55.570;37.488;2022-12-10T00:51:22;98885.03;;;-4.03;89.08
74936;BME280;63501;55.570;37.488;2022-12-10T00:53:50;98880.59;;;-3.99;88.85
74936;BME280;63501;55.570;37.488;2022-12-10T00:56:19;98881.72;;;-4.00;88.87
74936;BME280;63501;55.570;37.488;2022-12-10T00:58:45;98878.72;;;-3.98;88.83
74936;BME280;63501;55.570;37.488;2022-12-10T01:01:18;98871.72;;;-3.99;88.85
74936;BME280;63501;55.570;37.488;2022-12-10T01:03:45;98870.47;;;-3.93;89.01
74936;BME280;63501;55.570;37.488;2022-12-10T01:06:18;98869.06;;;-3.90;88.62
74936;BME280;63501;55.570;37.488;2022-12-10T01:08:45;98865.91;;;-3.92;88.50
74936;BME280;63501;55.570;37.488;2022-12-10T01:11:13;98867.28;;;-3.95;89.01
74936;BME280;63501;55.570;37.488;2022-12-10T01:13:39;98869.19;;;-3.95;88.09
74936;BME280;63501;55.570;37.488;2022-12-10T01:16:07;98866.97;;;-3.93;88.56
74936;BME280;63501;55.570;37.488;2022-12-10T01:18:33;98870.97;;;-3.91;88.09
74936;BME280;63501;55.570;37.488;2022-12-10T01:21:04;98857.16;;;-3.89;88.27
74936;BME280;63501;55.570;37.488;2022-12-10T01:23:34;98856.56;;;-3.86;88.27
74936;BME280;63501;55.570;37.488;2022-12-10T01:26:02;98853.06;;;-3.87;87.93
74936;BME280;63501;55.570;37.488;2022-12-10T01:28:30;98857.47;;;-3.91;87.84
74936;BME280;63501;55.570;37.488;2022-12-10T01:31:00;98865.38;;;-3.94;87.54
74936;BME280;63501;55.570;37.488;2022-12-10T01:33:25;98863.78;;;-3.95;87.78
74936;BME280;63501;55.570;37.488;2022-12-10T01:35:51;98850.28;;;-3.95;87.52
74936;BME280;63501;55.570;37.488;2022-12-10T01:38:16;98858.41;;;-3.95;87.67
74936;BME280;63501;55.570;37.488;2022-12-10T01:40:42;98858.06;;;-3.94;87.46
74936;BME280;63501;55.570;37.488;2022-12-10T01:43:13;98868.28;;;-3.91;87.79
74936;BME280;63501;55.570;37.488;2022-12-10T01:45:38;98874.34;;;-3.85;87.34
74936;BME280;63501;55.570;37.488;2022-12-10T01:48:04;98877.19;;;-3.82;87.66
74936;BME280;63501;55.570;37.488;2022-12-10T01:50:30;98883.09;;;-3.80;88.07
74936;BME280;63501;55.570;37.488;2022-12-10T01:52:55;98872.47;;;-3.76;87.33
74936;BME280;63501;55.570;37.488;2022-12-10T01:55:42;98875.16;;;-3.76;87.81
74936;BME280;63501;55.570;37.488;2022-12-10T01:58:08;98871.66;;;-3.77;87.70
74936;BME280;63501;55.570;37.488;2022-12-10T02:00:37;98872.47;;;-3.76;87.78
74936;BME280;63501;55.570;37.488;2022-12-10T02:03:14;98873.44;;;-3.72;87.24
74936;BME280;63501;55.570;37.488;2022-12-10T02:06:04;98866.94;;;-3.71;86.96
74936;BME280;63501;55.570;37.488;2022-12-10T02:11:40;98868.03;;;-3.72;87.13
74936;BME280;63501;55.570;37.488;2022-12-10T02:16:55;98875.81;;;-3.70;86.89
74936;BME280;63501;55.570;37.488;2022-12-10T02:21:50;98872.31;;;-3.71;86.63
74936;BME280;63501;55.570;37.488;2022-12-10T02:24:23;98871.06;;;-3.74;86.33
74936;BME280;63501;55.570;37.488;2022-12-10T02:29:27;98870.59;;;-3.67;86.89
74936;BME280;63501;55.570;37.488;2022-12-10T02:32:09;98865.53;;;-3.68;86.83
74936;BME280;63501;55.570;37.488;2022-12-10T02:34:42;98862.50;;;-3.67;87.41
74936;BME280;63501;55.570;37.488;2022-12-10T02:37:14;98872.69;;;-3.64;86.81
74936;BME280;63501;55.570;37.488;2022-12-10T02:39:45;98863.47;;;-3.63;86.77
74936;BME280;63501;55.570;37.488;2022-12-10T02:42:15;98870.94;;;-3.60;87.02
74936;BME280;63501;55.570;37.488;2022-12-10T02:44:42;98870.34;;;-3.57;86.44
74936;BME280;63501;55.570;37.488;2022-12-10T02:47:10;98860.00;;;-3.55;86.83
74936;BME280;63501;55.570;37.488;2022-12-10T02:49:39;98855.91;;;-3.52;87.17
74936;BME280;63501;55.570;37.488;2022-12-10T02:52:08;98849.38;;;-3.51;86.90
74936;BME280;63501;55.570;37.488;2022-12-10T02:54:41;98839.84;;;-3.49;86.97
74936;BME280;63501;55.570;37.488;2022-12-10T02:57:43;98834.44;;;-3.49;86.31
74936;BME280;63501;55.570;37.488;2022-12-10T03:03:03;98841.09;;;-3.55;87.21
74936;BME280;63501;55.570;37.488;2022-12-10T03:11:00;98852.53;;;-3.58;86.31
74936;BME280;63501;55.570;37.488;2022-12-10T03:13:51;98852.22;;;-3.56;86.39
74936;BME280;63501;55.570;37.488;2022-12-10T03:16:20;98850.31;;;-3.56;86.36
74936;BME280;63501;55.570;37.488;2022-12-10T03:18:50;98852.41;;;-3.53;86.64
74936;BME280;63501;55.570;37.488;2022-12-10T03:21:17;98854.47;;;-3.50;86.43
74936;BME280;63501;55.570;37.488;2022-12-10T03:23:46;98851.75;;;-3.50;85.87
74936;BME280;63501;55.570;37.488;2022-12-10T03:26:12;98850.66;;;-3.49;85.90
74936;BME280;63501;55.570;37.488;2022-12-10T03:28:43;98844.44;;;-3.49;86.41
74936;BME280;63501;55.570;37.488;2022-12-10T03:31:12;98843.31;;;-3.48;85.41
74936;BME280;63501;55.570;37.488;2022-12-10T03:33:40;98855.25;;;-3.49;86.42
74936;BME280;63501;55.570;37.488;2022-12-10T03:36:07;98844.94;;;-3.47;86.73
74936;BME280;63501;55.570;37.488;2022-12-10T03:38:33;98844.94;;;-3.47;85.69
74936;BME280;63501;55.570;37.488;2022-12-10T03:41:00;98846.53;;;-3.46;85.56
74936;BME280;63501;55.570;37.488;2022-12-10T03:43:26;98852.25;;;-3.48;86.17
74936;BME280;63501;55.570;37.488;2022-12-10T03:45:51;98838.75;;;-3.48;85.98
74936;BME280;63501;55.570;37.488;2022-12-10T03:48:17;98848.13;;;-3.45;85.96
74936;BME280;63501;55.570;37.488;2022-12-10T03:50:42;98851.16;;;-3.47;85.72
74936;BME280;63501;55.570;37.488;2022-12-10T03:53:08;98855.91;;;-3.43;85.82
74936;BME280;63501;55.570;37.488;2022-12-10T03:55:34;98847.19;;;-3.40;85.83
74936;BME280;63501;55.570;37.488;2022-12-10T03:57:59;98840.66;;;-3.39;85.89
74936;BME280;63501;55.570;37.488;2022-12-10T04:00:25;98835.25;;;-3.39;85.91
74936;BME280;63501;55.570;37.488;2022-12-10T04:02:50;98827.63;;;-3.37;85.65
74936;BME280;63501;55.570;37.488;2022-12-10T04:05:16;98831.94;;;-3.36;85.52
74936;BME280;63501;55.570;37.488;2022-12-10T04:07:42;98828.13;;;-3.35;85.73
74936;BME280;63501;55.570;37.488;2022-12-10T04:10:08;98823.19;;;-3.33;85.65
74936;BME280;63501;55.570;37.488;2022-12-10T04:12:33;98820.94;;;-3.31;86.00
74936;BME280;63501;55.570;37.488;2022-12-10T04:14:59;98823.66;;;-3.31;85.79
74936;BME280;63501;55.570;37.488;2022-12-10T04:17:43;98841.78;;;-3.32;86.39
74936;BME280;63501;55.570;37.488;2022-12-10T04:20:09;98839.88;;;-3.31;85.53
74936;BME280;63501;55.570;37.488;2022-12-10T04:22:55;98842.28;;;-3.30;86.48
74936;BME280;63501;55.570;37.488;2022-12-10T04:25:39;98845.00;;;-3.30;85.36
74936;BME280;63501;55.570;37.488;2022-12-10T04:28:23;98835.75;;;-3.29;85.97
74936;BME280;63501;55.570;37.488;2022-12-10T04:30:49;98826.22;;;-3.26;85.94
74936;BME280;63501;55.570;37.488;2022-12-10T04:33:15;98848.03;;;-3.23;86.09
74936;BME280;63501;55.570;37.488;2022-12-10T04:35:40;98846.91;;;-3.22;85.58
74936;BME280;63501;55.570;37.488;2022-12-10T04:38:06;98845.00;;;-3.21;86.08
74936;BME280;63501;55.570;37.488;2022-12-10T04:40:31;98842.78;;;-3.19;85.73
74936;BME280;63501;55.570;37.488;2022-12-10T04:42:57;98836.59;;;-3.20;85.76
74936;BME280;63501;55.570;37.488;2022-12-10T04:45:22;98833.06;;;-3.20;86.05
74936;BME280;63501;55.570;37.488;2022-12-10T04:47:48;98832.28;;;-3.21;85.75
74936;BME280;63501;55.570;37.488;2022-12-10T04:50:13;98827.19;;;-3.22;85.83
74936;BME280;63501;55.570;37.488;2022-12-10T04:52:39;98825.41;;;-3.27;86.15
74936;BME280;63501;55.570;37.488;2022-12-10T04:55:05;98824.00;;;-3.24;85.71
74936;BME280;63501;55.570;37.488;2022-12-10T04:57:31;98821.31;;;-3.24;85.77
74936;BME280;63501;55.570;37.488;2022-12-10T04:59:56;98824.31;;;-3.26;85.47
74936;BME280;63501;55.570;37.488;2022-12-10T05:02:22;98818.44;;;-3.28;85.43
74936;BME280;63501;55.570;37.488;2022-12-10T05:04:50;98821.78;;;-3.31;85.56
74936;BME280;63501;55.570;37.488;2022-12-10T05:07:16;98827.34;;;-3.27;85.64
74936;BME280;63501;55.570;37.488;2022-12-10T05:09:41;98830.03;;;-3.27;86.03
74936;BME280;63501;55.570;37.488;2022-12-10T05:12:07;98819.88;;;-3.30;85.67
74936;BME280;63501;55.570;37.488;2022-12-10T05:14:32;98823.03;;;-3.28;85.78
74936;BME280;63501;55.570;37.488;2022-12-10T05:16:58;98831.63;;;-3.26;85.92
74936;BME280;63501;55.570;37.488;2022-12-10T05:19:23;98833.72;;;-3.23;85.86
74936;BME280;63501;55.570;37.488;2022-12-10T05:21:52;98840.88;;;-3.18;85.79
74936;BME280;63501;55.570;37.488;2022-12-10T05:24:36;98842.16;;;-3.16;85.39
74936;BME280;63501;55.570;37.488;2022-12-10T05:27:02;98840.09;;;-3.19;85.72
74936;BME280;63501;55.570;37.488;2022-12-10T05:29:28;98839.28;;;-3.20;85.10
74936;BME280;63501;55.570;37.488;2022-12-10T05:31:54;98845.00;;;-3.21;85.82
74936;BME280;63501;55.570;37.488;2022-12-10T05:34:19;98849.94;;;-3.23;84.81
74936;BME280;63501;55.570;37.488;2022-12-10T05:36:45;98846.13;;;-3.22;85.88
74936;BME280;63501;55.570;37.488;2022-12-10T05:39:11;98847.69;;;-3.21;85.55
74936;BME280;63501;55.570;37.488;2022-12-10T05:41:38;98838.66;;;-3.25;85.63
74936;BME280;63501;55.570;37.488;2022-12-10T05:44:06;98839.25;;;-3.28;85.64
74936;BME280;63501;55.570;37.488;2022-12-10T05:46:34;98841.97;;;-3.28;85.56
74936;BME280;63501;55.570;37.488;2022-12-10T05:49:02;98846.25;;;-3.27;85.52
74936;BME280;63501;55.570;37.488;2022-12-10T05:51:30;98843.56;;;-3.27;85.90
74936;BME280;63501;55.570;37.488;2022-12-10T05:53:57;98838.31;;;-3.24;86.59
74936;BME280;63501;55.570;37.488;2022-12-10T05:56:24;98835.75;;;-3.20;85.17
74936;BME280;63501;55.570;37.488;2022-12-10T05:58:52;98827.66;;;-3.20;85.83
74936;BME280;63501;55.570;37.488;2022-12-10T06:01:21;98834.03;;;-3.16;86.13
74936;BME280;63501;55.570;37.488;2022-12-10T06:03:47;98833.41;;;-3.13;85.83
74936;BME280;63501;55.570;37.488;2022-12-10T06:06:13;98828.47;;;-3.11;85.80
74936;BME280;63501;55.570;37.488;2022-12-10T06:08:39;98825.16;;;-3.08;85.62
74936;BME280;63501;55.570;37.488;2022-12-10T06:11:08;98827.84;;;-3.08;85.75
74936;BME280;63501;55.570;37.488;2022-12-10T06:13:34;98825.44;;;-3.09;86.11
74936;BME280;63501;55.570;37.488;2022-12-10T06:16:08;98830.56;;;-3.08;85.70
74936;BME280;63501;55.570;37.488;2022-12-10T06:18:34;98826.09;;;-3.04;86.05
74936;BME280;63501;55.570;37.488;2022-12-10T06:21:08;98823.09;;;-3.02;85.39
74936;BME280;63501;55.570;37.488;2022-12-10T06:23:35;98816.25;;;-3.00;85.83
74936;BME280;63501;55.570;37.488;2022-12-10T06:26:12;98819.13;;;-2.96;85.04
74936;BME280;63501;55.570;37.488;2022-12-10T06:28:38;98823.41;;;-2.95;85.38
74936;BME280;63501;55.570;37.488;2022-12-10T06:31:04;98812.59;;;-2.95;86.09
74936;BME280;63501;55.570;37.488;2022-12-10T06:33:30;98811.16;;;-2.93;85.68
74936;BME280;63501;55.570;37.488;2022-12-10T06:35:55;98805.75;;;-2.93;85.49
74936;BME280;63501;55.570;37.488;2022-12-10T06:38:21;98804.31;;;-2.90;85.28
74936;BME280;63501;55.570;37.488;2022-12-10T06:40:47;98804.78;;;-2.88;86.10
74936;BME280;63501;55.570;37.488;2022-12-10T06:43:12;98798.25;;;-2.87;85.38
74936;BME280;63501;55.570;37.488;2022-12-10T06:45:39;98804.97;;;-2.84;85.66
74936;BME280;63501;55.570;37.488;2022-12-10T06:48:05;98808.47;;;-2.84;86.17
74936;BME280;63501;55.570;37.488;2022-12-10T06:50:31;98813.53;;;-2.82;84.83
74936;BME280;63501;55.570;37.488;2022-12-10T06:52:56;98813.22;;;-2.81;85.41
74936;BME280;63501;55.570;37.488;2022-12-10T06:55:22;98809.56;;;-2.76;85.54
74936;BME280;63501;55.570;37.488;2022-12-10T06:57:51;98808.94;;;-2.73;85.23
74936;BME280;63501;55.570;37.488;2022-12-10T07:00:17;98809.72;;;-2.73;85.72
74936;BME280;63501;55.570;37.488;2022-12-10T07:02:43;98804.50;;;-2.69;85.50
74936;BME280;63501;55.570;37.488;2022-12-10T07:05:08;98810.69;;;-2.69;85.75
74936;BME280;63501;55.570;37.488;2022-12-10T07:07:35;98803.84;;;-2.66;85.28
74936;BME280;63501;55.570;37.488;2022-12-10T07:10:01;98805.91;;;-2.63;85.71
74936;BME280;63501;55.570;37.488;2022-12-10T07:12:26;98806.06;;;-2.59;85.27
74936;BME280;63501;55.570;37.488;2022-12-10T07:14:52;98806.22;;;-2.56;85.97
74936;BME280;63501;55.570;37.488;2022-12-10T07:17:18;98797.31;;;-2.56;85.82
74936;BME280;63501;55.570;37.488;2022-12-10T07:19:43;98795.22;;;-2.51;85.17
74936;BME280;63501;55.570;37.488;2022-12-10T07:22:09;98802.69;;;-2.48;85.18
74936;BME280;63501;55.570;37.488;2022-12-10T07:24:35;98805.88;;;-2.46;84.79
74936;BME280;63501;55.570;37.488;2022-12-10T07:27:04;98805.56;;;-2.44;85.18
74936;BME280;63501;55.570;37.488;2022-12-10T07:29:30;98800.31;;;-2.41;85.06
74936;BME280;63501;55.570;37.488;2022-12-10T07:31:55;98799.66;;;-2.37;85.95
74936;BME280;63501;55.570;37.488;2022-12-10T07:34:21;98791.22;;;-2.36;86.12
74936;BME280;63501;55.570;37.488;2022-12-10T07:36:47;98801.06;;;-2.31;85.08
74936;BME280;63501;55.570;37.488;2022-12-10T07:39:13;98802.50;;;-2.25;85.65
74936;BME280;63501;55.570;37.488;2022-12-10T07:41:50;98805.69;;;-2.23;85.18
74936;BME280;63501;55.570;37.488;2022-12-10T07:44:21;98792.63;;;-2.21;85.40
74936;BME280;63501;55.570;37.488;2022-12-10T07:46:48;98794.69;;;-2.18;85.18
74936;BME280;63501;55.570;37.488;2022-12-10T07:49:15;98789.91;;;-2.13;84.73
74936;BME280;63501;55.570;37.488;2022-12-10T07:51:48;98786.19;;;-2.08;85.62
74936;BME280;63501;55.570;37.488;2022-12-10T07:54:14;98786.34;;;-2.04;84.89
74936;BME280;63501;55.570;37.488;2022-12-10T07:56:41;98789.22;;;-2.01;85.68
74936;BME280;63501;55.570;37.488;2022-12-10T07:59:06;98782.00;;;-1.97;85.31
74936;BME280;63501;55.570;37.488;2022-12-10T08:01:32;98789.16;;;-1.92;85.45
74936;BME280;63501;55.570;37.488;2022-12-10T08:03:58;98786.78;;;-1.85;84.63
74936;BME280;63501;55.570;37.488;2022-12-10T08:06:26;98782.44;;;-1.86;84.89
74936;BME280;63501;55.570;37.488;2022-12-10T08:08:52;98787.38;;;-1.79;84.92
74936;BME280;63501;55.570;37.488;2022-12-10T08:11:19;98778.25;;;-1.75;85.35
74936;BME280;63501;55.570;37.488;2022-12-10T08:13:46;98785.28;;;-1.74;84.80
74936;BME280;63501;55.570;37.488;2022-12-10T08:16:17;98784.16;;;-1.73;85.08
74936;BME280;63501;55.570;37.488;2022-12-10T08:18:43;98782.88;;;-1.75;84.54
74936;BME280;63501;55.570;37.488;2022-12-10T08:21:12;98777.47;;;-1.75;84.83
74936;BME280;63501;55.570;37.488;2022-12-10T08:23:38;98790.72;;;-1.74;84.81
74936;BME280;63501;55.570;37.488;2022-12-10T08:26:09;98786.09;;;-1.73;85.24
74936;BME280;63501;55.570;37.488;2022-12-10T08:28:35;98785.94;;;-1.77;85.12
74936;BME280;63501;55.570;37.488;2022-12-10T08:31:02;98782.44;;;-1.77;85.26
74936;BME280;63501;55.570;37.488;2022-12-10T08:33:28;98788.97;;;-1.78;84.57
74936;BME280;63501;55.570;37.488;2022-12-10T08:36:00;98773.34;;;-1.81;84.61
74936;BME280;63501;55.570;37.488;2022-12-10T08:38:26;98774.81;;;-1.84;85.37
74936;BME280;63501;55.570;37.488;2022-12-10T08:40:52;98775.28;;;-1.82;85.28
74936;BME280;63501;55.570;37.488;2022-12-10T08:43:19;98769.22;;;-1.79;84.94
74936;BME280;63501;55.570;37.488;2022-12-10T08:45:45;98763.63;;;-1.74;84.97
74936;BME280;63501;55.570;37.488;2022-12-10T08:48:10;98755.16;;;-1.72;84.96
74936;BME280;63501;55.570;37.488;2022-12-10T08:50:37;98761.03;;;-1.70;84.62
74936;BME280;63501;55.570;37.488;2022-12-10T08:53:02;98765.81;;;-1.67;84.95
74936;BME280;63501;55.570;37.488;2022-12-10T08:55:28;98754.78;;;-1.62;84.76
74936;BME280;63501;55.570;37.488;2022-12-10T08:57:54;98755.22;;;-1.60;84.86
74936;BME280;63501;55.570;37.488;2022-12-10T09:00:19;98761.78;;;-1.61;84.93
74936;BME280;63501;55.570;37.488;2022-12-10T09:02:45;98757.31;;;-1.57;84.21
74936;BME280;63501;55.570;37.488;2022-12-10T09:05:11;98762.25;;;-1.59;84.61
74936;BME280;63501;55.570;37.488;2022-12-10T09:07:37;98767.03;;;-1.56;84.07
74936;BME280;63501;55.570;37.488;2022-12-10T09:10:03;98779.78;;;-1.56;84.27
74936;BME280;63501;55.570;37.488;2022-12-10T09:12:29;98767.31;;;-1.57;84.65
74936;BME280;63501;55.570;37.488;2022-12-10T09:14:54;98767.66;;;-1.59;83.88
74936;BME280;63501;55.570;37.488;2022-12-10T09:17:21;98777.56;;;-1.63;84.63
74936;BME280;63501;55.570;37.488;2022-12-10T09:19:47;98784.91;;;-1.64;84.47
74936;BME280;63501;55.570;37.488;2022-12-10T09:22:13;98776.16;;;-1.69;84.40
74936;BME280;63501;55.570;37.488;2022-12-10T09:24:38;98781.13;;;-1.71;85.07
74936;BME280;63501;55.570;37.488;2022-12-10T09:27:04;98777.16;;;-1.74;84.77
74936;BME280;63501;55.570;37.488;2022-12-10T09:29:29;98761.69;;;-1.73;84.77
74936;BME280;63501;55.570;37.488;2022-12-10T09:31:55;98757.84;;;-1.72;84.49
74936;BME280;63501;55.570;37.488;2022-12-10T09:34:20;98758.31;;;-1.70;85.30
74936;BME280;63501;55.570;37.488;2022-12-10T09:36:46;98765.19;;;-1.73;84.80
74936;BME280;63501;55.570;37.488;2022-12-10T09:39:12;98764.41;;;-1.73;85.36
74936;BME280;63501;55.570;37.488;2022-12-10T09:44:41;98752.63;;;-1.77;85.91
74936;BME280;63501;55.570;37.488;2022-12-10T09:47:10;98743.53;;;-1.81;84.97
74936;BME280;63501;55.570;37.488;2022-12-10T09:49:59;98746.41;;;-1.78;84.98
74936;BME280;63501;55.570;37.488;2022-12-10T09:52:36;98752.94;;;-1.79;85.06
74936;BME280;63501;55.570;37.488;2022-12-10T09:55:09;98755.31;;;-1.77;85.73
74936;BME280;63501;55.570;37.488;2022-12-10T09:57:41;98753.41;;;-1.77;85.71
74936;BME280;63501;55.570;37.488;2022-12-10T10:02:42;98750.53;;;-1.72;84.59
74936;BME280;63501;55.570;37.488;2022-12-10T10:07:38;98746.84;;;-1.67;85.16
74936;BME280;63501;55.570;37.488;2022-12-10T10:10:11;98739.94;;;-1.65;85.54
74936;BME280;63501;55.570;37.488;2022-12-10T10:12:41;98739.94;;;-1.65;85.84
74936;BME280;63501;55.570;37.488;2022-12-10T10:15:19;98740.28;;;-1.66;85.14
74936;BME280;63501;55.570;37.488;2022-12-10T10:17:47;98728.97;;;-1.68;85.91
74936;BME280;63501;55.570;37.488;2022-12-10T10:20:15;98722.75;;;-1.69;86.10
74936;BME280;63501;55.570;37.488;2022-12-10T10:22:41;98728.78;;;-1.63;84.80
74936;BME280;63501;55.570;37.488;2022-12-10T10:25:14;98718.41;;;-1.61;85.49
74936;BME280;63501;55.570;37.488;2022-12-10T10:27:40;98715.38;;;-1.60;86.12
74936;BME280;63501;55.570;37.488;2022-12-10T10:30:07;98722.06;;;-1.57;85.48
74936;BME280;63501;55.570;37.488;2022-12-10T10:35:05;98713.00;;;-1.61;85.62
74936;BME280;63501;55.570;37.488;2022-12-10T10:37:40;98714.25;;;-1.58;85.19
74936;BME280;63501;55.570;37.488;2022-12-10T10:41:01;98707.56;;;-1.61;85.49
74936;BME280;63501;55.570;37.488;2022-12-10T10:43:01;98713.00;;;-1.61;85.40
74936;BME280;63501;55.570;37.488;2022-12-10T10:48:13;98709.69;;;-1.67;85.25
74936;BME280;63501;55.570;37.488;2022-12-10T10:50:42;98709.69;;;-1.67;85.44
74936;BME280;63501;55.570;37.488;2022-12-10T10:55:52;98697.75;;;-1.74;85.52
74936;BME280;63501;55.570;37.488;2022-12-10T10:58:20;98690.75;;;-1.75;86.00
74936;BME280;63501;55.570;37.488;2022-12-10T11:00:58;98687.25;;;-1.76;85.82
74936;BME280;63501;55.570;37.488;2022-12-10T11:03:26;98683.75;;;-1.76;86.20
74936;BME280;63501;55.570;37.488;2022-12-10T11:05:54;98680.69;;;-1.75;85.26
74936;BME280;63501;55.570;37.488;2022-12-10T11:08:24;98678.31;;;-1.76;86.07
74936;BME280;63501;55.570;37.488;2022-12-10T11:10:56;98675.47;;;-1.80;85.87
74936;BME280;63501;55.570;37.488;2022-12-10T11:13:29;98685.50;;;-1.80;85.75
74936;BME280;63501;55.570;37.488;2022-12-10T11:18:35;98670.56;;;-1.87;86.59
74936;BME280;63501;55.570;37.488;2022-12-10T11:21:14;98666.81;;;-1.94;86.82
74936;BME280;63501;55.570;37.488;2022-12-10T11:23:46;98652.81;;;-1.96;86.76
74936;BME280;63501;55.570;37.488;2022-12-10T11:40:00;98641.81;;;-2.00;86.04
74936;BME280;63501;55.570;37.488;2022-12-10T11:50:30;98627.81;;;-2.02;87.08
74936;BME280;63501;55.570;37.488;2022-12-10T11:56:13;98623.78;;;-1.96;86.51
74936;BME280;63501;55.570;37.488;2022-12-10T12:14:56;98619.34;;;-2.00;86.54
74936;BME280;63501;55.570;37.488;2022-12-10T12:17:27;98619.34;;;-2.00;86.82
74936;BME280;63501;55.570;37.488;2022-12-10T12:22:34;98622.69;;;-2.03;87.10
74936;BME280;63501;55.570;37.488;2022-12-10T12:25:08;98621.91;;;-2.04;86.72
74936;BME280;63501;55.570;37.488;2022-12-10T12:27:45;98621.47;;;-2.06;86.73
74936;BME280;63501;55.570;37.488;2022-12-10T12:30:18;98619.09;;;-2.07;87.04
74936;BME280;63501;55.570;37.488;2022-12-10T12:32:55;98616.69;;;-2.09;87.39
74936;BME280;63501;55.570;37.488;2022-12-10T12:35:38;98616.84;;;-2.05;86.85
74936;BME280;63501;55.570;37.488;2022-12-10T12:38:30;98602.34;;;-2.09;86.81
74936;BME280;63501;55.570;37.488;2022-12-10T12:43:37;98606.78;;;-2.05;86.92
74936;BME280;63501;55.570;37.488;2022-12-10T12:46:12;98613.44;;;-2.02;87.43
74936;BME280;63501;55.570;37.488;2022-12-10T12:48:51;98599.44;;;-2.04;87.30
74936;BME280;63501;55.570;37.488;2022-12-10T12:51:36;98604.22;;;-2.01;86.78
74936;BME280;63501;55.570;37.488;2022-12-10T12:54:04;98601.53;;;-2.01;86.76
74936;BME280;63501;55.570;37.488;2022-12-10T12:59:31;98609.94;;;-2.03;87.77
74936;BME280;63501;55.570;37.488;2022-12-10T13:04:47;98604.53;;;-2.03;87.17
74936;BME280;63501;55.570;37.488;2022-12-10T13:09:51;98608.38;;;-2.04;87.57
74936;BME280;63501;55.570;37.488;2022-12-10T13:12:49;98614.59;;;-2.03;87.26
74936;BME280;63501;55.570;37.488;2022-12-10T13:15:36;98607.59;;;-2.04;88.02
74936;BME280;63501;55.570;37.488;2022-12-10T13:20:45;98599.31;;;-2.08;88.43
74936;BME280;63501;55.570;37.488;2022-12-10T13:41:43;98590.69;;;-2.01;87.22
74936;BME280;63501;55.570;37.488;2022-12-10T13:44:50;98590.34;;;-2.00;87.70
74936;BME280;63501;55.570;37.488;2022-12-10T13:55:53;98578.84;;;-1.97;87.65
74936;BME280;63501;55.570;37.488;2022-12-10T14:06:41;98570.66;;;-1.88;87.56
74936;BME280;63501;55.570;37.488;2022-12-10T14:09:18;98563.78;;;-1.86;87.72
74936;BME280;63501;55.570;37.488;2022-12-10T14:12:25;98555.66;;;-1.86;87.70
74936;BME280;63501;55.570;37.488;2022-12-10T14:14:56;98560.28;;;-1.86;87.54
74936;BME280;63501;55.570;37.488;2022-12-10T14:17:34;98552.94;;;-1.86;88.19
74936;BME280;63501;55.570;37.488;2022-12-10T14:20:05;98548.78;;;-1.83;88.25
74936;BME280;63501;55.570;37.488;2022-12-10T14:22:37;98545.41;;;-1.80;87.43
74936;BME280;63501;55.570;37.488;2022-12-10T14:25:11;98538.09;;;-1.79;87.72
74936;BME280;63501;55.570;37.488;2022-12-10T14:27:39;98534.69;;;-1.76;87.74
74936;BME280;63501;55.570;37.488;2022-12-10T14:30:23;98540.56;;;-1.74;87.03
74936;BME280;63501;55.570;37.488;2022-12-10T14:32:50;98524.31;;;-1.74;87.36
74936;BME280;63501;55.570;37.488;2022-12-10T14:35:22;98531.78;;;-1.71;87.55
74936;BME280;63501;55.570;37.488;2022-12-10T14:37:49;98525.25;;;-1.70;87.70
74936;BME280;63501;55.570;37.488;2022-12-10T14:40:23;98515.97;;;-1.69;87.78
74936;BME280;63501;55.570;37.488;2022-12-10T14:42:55;98516.78;;;-1.69;87.34
74936;BME280;63501;55.570;37.488;2022-12-10T14:45:23;98517.59;;;-1.68;87.79
74936;BME280;63501;55.570;37.488;2022-12-10T14:47:48;98509.47;;;-1.68;87.34
74936;BME280;63501;55.570;37.488;2022-12-10T14:50:15;98499.06;;;-1.66;87.36
74936;BME280;63501;55.570;37.488;2022-12-10T14:52:44;98482.22;;;-1.72;88.11
74936;BME280;63501;55.570;37.488;2022-12-10T14:55:19;98486.75;;;-1.64;87.22
74936;BME280;63501;55.570;37.488;2022-12-10T14:58:09;98482.13;;;-1.63;87.38
74936;BME280;63501;55.570;37.488;2022-12-10T15:00:40;98485.66;;;-1.63;87.36
74936;BME280;63501;55.570;37.488;2022-12-10T15:03:10;98482.59;;;-1.61;87.08
74936;BME280;63501;55.570;37.488;2022-12-10T15:05:36;98477.19;;;-1.61;87.78
74936;BME280;63501;55.570;37.488;2022-12-10T15:08:03;98467.47;;;-1.62;88.32
74936;BME280;63501;55.570;37.488;2022-12-10T15:10:38;98462.84;;;-1.62;87.38
74936;BME280;63501;55.570;37.488;2022-12-10T15:13:05;98459.78;;;-1.60;88.22